sensor_id;sensor_type;location;lat;lon;timestamp;pressure;altitude;pressure_sealevel;temperature;humidity
32735;BME280;19112;51.076;3.706;2023-03-16T00:01:23;101529.06;;;10.30;65.70
32735;BME280;19112;51.076;3.706;2023-03-16T00:03:58;101362.03;;;9.34;66.27
32735;BME280;19112;51.076;3.706;2023-03-16T00:06:44;101433.03;;;9.77;66.64
32735;BME280;19112;51.076;3.706;2023-03-16T00:09:49;101570.34;;;10.54;66.99
32735;BME280;19112;51.076;3.706;2023-03-16T00:12:30;101499.19;;;10.09;67.32
32735;BME280;19112;51.076;3.706;2023-03-16T00:18:40;101537.91;;;10.14;67.55
32735;BME280;19112;51.076;3.706;2023-03-16T00:21:17;101484.69;;;9.97;67.74
32735;BME280;19112;51.076;3.706;2023-03-16T00:24:02;101519.56;;;10.14;67.29
32735;BME280;19112;51.076;3.706;2023-03-16T00:26:48;101320.91;;;9.13;67.52
32735;BME280;19112;51.076;3.706;2023-03-16T00:29:17;101413.97;;;9.62;67.43
32735;BME280;19112;51.076;3.706;2023-03-16T00:32:33;101555.44;;;10.53;66.44
32735;BME280;19112;51.076;3.706;2023-03-16T00:35:00;101481.22;;;9.98;65.88
32735;BME280;19112;51.076;3.706;2023-03-16T00:37:30;101506.50;;;10.16;66.87
32735;BME280;19112;51.076;3.706;2023-03-16T00:40:07;101476.66;;;9.94;66.53
32735;BME280;19112;51.076;3.706;2023-03-16T00:42:35;101296.66;;;8.80;66.36
32735;BME280;19112;51.076;3.706;2023-03-16T00:45:08;101514.53;;;10.19;66.75
32735;BME280;19112;51.076;3.706;2023-03-16T00:47:53;101337.88;;;9.22;67.43
32735;BME280;19112;51.076;3.706;2023-03-16T00:50:31;101547.50;;;10.51;66.89
32735;BME280;19112;51.076;3.706;2023-03-16T00:52:57;101403.09;;;9.72;66.67
32735;BME280;19112;51.076;3.706;2023-03-16T00:55:33;101333.66;;;9.25;67.95
32735;BME280;19112;51.076;3.706;2023-03-16T00:57:59;101227.81;;;8.63;67.83
32735;BME280;19112;51.076;3.706;2023-03-16T01:00:29;101379.47;;;9.53;67.46
32735;BME280;19112;51.076;3.706;2023-03-16T01:02:55;101526.00;;;10.40;67.94
32735;BME280;19112;51.076;3.706;2023-03-16T01:05:22;101437.81;;;9.86;68.06
32735;BME280;19112;51.076;3.706;2023-03-16T01:07:49;101442.44;;;9.91;68.08
32735;BME280;19112;51.076;3.706;2023-03-16T01:10:16;101305.97;;;9.11;67.58
32735;BME280;19112;51.076;3.706;2023-03-16T01:12:42;101368.09;;;9.52;68.13
32735;BME280;19112;51.076;3.706;2023-03-16T01:15:16;101323.13;;;9.24;68.52
32735;BME280;19112;51.076;3.706;2023-03-16T01:17:42;101335.28;;;9.41;68.78
32735;BME280;19112;51.076;3.706;2023-03-16T01:20:10;101348.03;;;9.53;68.18
32735;BME280;19112;51.076;3.706;2023-03-16T01:22:36;101295.88;;;9.20;67.96
32735;BME280;19112;51.076;3.706;2023-03-16T01:25:03;101392.13;;;9.81;68.32
32735;BME280;19112;51.076;3.706;2023-03-16T01:27:30;101466.44;;;10.20;69.10
32735;BME280;19112;51.076;3.706;2023-03-16T01:29:55;101129.47;;;8.31;68.91
32735;BME280;19112;51.076;3.706;2023-03-16T01:32:21;101324.38;;;9.51;69.09
32735;BME280;19112;51.076;3.706;2023-03-16T01:34:47;101185.34;;;8.69;69.20
32735;BME280;19112;51.076;3.706;2023-03-16T01:37:13;101335.06;;;9.56;69.20
32735;BME280;19112;51.076;3.706;2023-03-16T01:39:40;101425.66;;;10.07;69.58
32735;BME280;19112;51.076;3.706;2023-03-16T01:42:06;101370.25;;;9.80;69.53
32735;BME280;19112;51.076;3.706;2023-03-16T01:44:59;101270.13;;;9.29;69.69
32735;BME280;19112;51.076;3.706;2023-03-16T01:47:30;101280.59;;;9.29;69.03
32735;BME280;19112;51.076;3.706;2023-03-16T01:50:04;101377.41;;;9.84;69.39
32735;BME280;19112;51.076;3.706;2023-03-16T01:52:34;100756.50;;;6.40;69.05
32735;BME280;19112;51.076;3.706;2023-03-16T01:55:06;101447.97;;;10.36;70.05
32735;BME280;19112;51.076;3.706;2023-03-16T01:57:53;101293.69;;;9.49;69.85
32735;BME280;19112;51.076;3.706;2023-03-16T02:00:20;101299.06;;;9.13;69.65
32735;BME280;19112;51.076;3.706;2023-03-16T02:02:55;101428.56;;;10.33;69.30
32735;BME280;19112;51.076;3.706;2023-03-16T02:05:32;101437.06;;;10.27;69.58
32735;BME280;19112;51.076;3.706;2023-03-16T02:08:02;101317.69;;;9.58;69.95
32735;BME280;19112;51.076;3.706;2023-03-16T02:10:28;101350.66;;;9.72;69.37
32735;BME280;19112;51.076;3.706;2023-03-16T02:12:54;101351.69;;;9.76;70.08
32735;BME280;19112;51.076;3.706;2023-03-16T02:15:22;101169.63;;;8.69;70.54
32735;BME280;19112;51.076;3.706;2023-03-16T02:17:49;101351.59;;;9.74;70.46
32735;BME280;19112;51.076;3.706;2023-03-16T02:22:51;101215.09;;;9.10;69.80
32735;BME280;19112;51.076;3.706;2023-03-16T02:31:16;101208.06;;;9.09;70.19
32735;BME280;19112;51.076;3.706;2023-03-16T02:33:44;101265.97;;;9.34;70.10
32735;BME280;19112;51.076;3.706;2023-03-16T02:36:13;101302.88;;;9.79;70.04
32735;BME280;19112;51.076;3.706;2023-03-16T02:38:40;101239.47;;;9.48;70.49
32735;BME280;19112;51.076;3.706;2023-03-16T02:41:18;101270.06;;;9.68;70.17
32735;BME280;19112;51.076;3.706;2023-03-16T02:43:55;101203.94;;;9.33;69.42
32735;BME280;19112;51.076;3.706;2023-03-16T02:46:26;101106.78;;;8.88;69.40
32735;BME280;19112;51.076;3.706;2023-03-16T02:51:29;101220.75;;;9.38;69.66
32735;BME280;19112;51.076;3.706;2023-03-16T02:53:57;101039.78;;;8.34;69.73
32735;BME280;19112;51.076;3.706;2023-03-16T02:56:28;101299.16;;;9.93;69.67
32735;BME280;19112;51.076;3.706;2023-03-16T02:58:54;101358.34;;;10.08;70.31
32735;BME280;19112;51.076;3.706;2023-03-16T03:01:22;101094.00;;;8.36;70.34
32735;BME280;19112;51.076;3.706;2023-03-16T03:04:03;101071.56;;;8.42;69.87
32735;BME280;19112;51.076;3.706;2023-03-16T03:06:29;101216.13;;;9.33;70.55
32735;BME280;19112;51.076;3.706;2023-03-16T03:09:17;101349.91;;;10.15;70.55
32735;BME280;19112;51.076;3.706;2023-03-16T03:11:46;101326.84;;;9.67;70.27
32735;BME280;19112;51.076;3.706;2023-03-16T03:14:15;101149.25;;;9.01;69.82
32735;BME280;19112;51.076;3.706;2023-03-16T03:16:47;101073.31;;;8.62;69.71
32735;BME280;19112;51.076;3.706;2023-03-16T03:19:26;101296.53;;;9.93;70.80
32735;BME280;19112;51.076;3.706;2023-03-16T03:21:52;101245.38;;;9.63;69.66
32735;BME280;19112;51.076;3.706;2023-03-16T03:24:27;101334.00;;;10.31;69.97
32735;BME280;19112;51.076;3.706;2023-03-16T03:26:53;101253.16;;;9.81;69.45
32735;BME280;19112;51.076;3.706;2023-03-16T03:29:18;100946.72;;;8.20;69.25
32735;BME280;19112;51.076;3.706;2023-03-16T03:32:06;101332.94;;;10.26;68.47
32735;BME280;19112;51.076;3.706;2023-03-16T03:34:38;101072.06;;;8.92;67.95
32735;BME280;19112;51.076;3.706;2023-03-16T03:37:05;101328.47;;;10.23;69.30
32735;BME280;19112;51.076;3.706;2023-03-16T03:39:32;101315.06;;;10.17;67.93
32735;BME280;19112;51.076;3.706;2023-03-16T03:42:00;101164.44;;;9.50;67.64
32735;BME280;19112;51.076;3.706;2023-03-16T03:44:36;101169.06;;;9.55;67.89
32735;BME280;19112;51.076;3.706;2023-03-16T03:47:11;101306.19;;;10.35;67.67
32735;BME280;19112;51.076;3.706;2023-03-16T03:49:39;101304.56;;;10.38;67.59
32735;BME280;19112;51.076;3.706;2023-03-16T03:52:05;101238.53;;;10.07;67.20
32735;BME280;19112;51.076;3.706;2023-03-16T03:54:37;101251.69;;;10.08;66.91
32735;BME280;19112;51.076;3.706;2023-03-16T03:57:10;100978.03;;;8.57;66.56
32735;BME280;19112;51.076;3.706;2023-03-16T03:59:41;101308.38;;;10.24;66.86
32735;BME280;19112;51.076;3.706;2023-03-16T04:02:18;101296.84;;;10.22;67.67
32735;BME280;19112;51.076;3.706;2023-03-16T04:05:05;101174.13;;;9.31;66.43
32735;BME280;19112;51.076;3.706;2023-03-16T04:07:36;101247.78;;;9.98;67.35
32735;BME280;19112;51.076;3.706;2023-03-16T04:10:02;101211.22;;;9.81;66.59
32735;BME280;19112;51.076;3.706;2023-03-16T04:12:31;101280.13;;;10.39;66.32
32735;BME280;19112;51.076;3.706;2023-03-16T04:15:34;101276.28;;;10.31;67.02
32735;BME280;19112;51.076;3.706;2023-03-16T04:18:06;101304.91;;;10.25;67.03
32735;BME280;19112;51.076;3.706;2023-03-16T04:20:38;101103.97;;;9.24;67.15
32735;BME280;19112;51.076;3.706;2023-03-16T04:23:09;101021.03;;;8.83;66.72
32735;BME280;19112;51.076;3.706;2023-03-16T04:25:39;100937.44;;;8.26;66.48
32735;BME280;19112;51.076;3.706;2023-03-16T04:28:24;101285.69;;;10.26;66.51
32735;BME280;19112;51.076;3.706;2023-03-16T04:31:08;101225.97;;;10.00;66.94
32735;BME280;19112;51.076;3.706;2023-03-16T04:33:59;101205.69;;;9.95;66.24
32735;BME280;19112;51.076;3.706;2023-03-16T04:36:31;101050.69;;;9.03;66.53
32735;BME280;19112;51.076;3.706;2023-03-16T04:38:57;101087.66;;;9.31;66.41
32735;BME280;19112;51.076;3.706;2023-03-16T04:41:23;101241.59;;;10.17;66.56
32735;BME280;19112;51.076;3.706;2023-03-16T04:43:49;101134.84;;;9.52;65.29
32735;BME280;19112;51.076;3.706;2023-03-16T04:46:27;101190.28;;;9.82;65.50
32735;BME280;19112;51.076;3.706;2023-03-16T04:48:54;101105.50;;;9.19;65.01
32735;BME280;19112;51.076;3.706;2023-03-16T04:51:36;101216.38;;;10.00;64.73
32735;BME280;19112;51.076;3.706;2023-03-16T04:54:14;100963.22;;;8.57;63.87
32735;BME280;19112;51.076;3.706;2023-03-16T04:56:40;101156.06;;;9.58;64.68
32735;BME280;19112;51.076;3.706;2023-03-16T04:59:31;101200.28;;;9.91;64.43
32735;BME280;19112;51.076;3.706;2023-03-16T05:02:02;101158.88;;;9.63;64.36
32735;BME280;19112;51.076;3.706;2023-03-16T05:04:32;101186.06;;;9.86;64.33
32735;BME280;19112;51.076;3.706;2023-03-16T05:07:10;101228.72;;;10.03;63.83
32735;BME280;19112;51.076;3.706;2023-03-16T05:09:36;101230.72;;;10.08;62.85
32735;BME280;19112;51.076;3.706;2023-03-16T05:12:02;101032.53;;;9.07;63.36
32735;BME280;19112;51.076;3.706;2023-03-16T05:14:40;101164.19;;;9.85;62.81
32735;BME280;19112;51.076;3.706;2023-03-16T05:17:07;101230.13;;;10.36;62.45
32735;BME280;19112;51.076;3.706;2023-03-16T05:19:45;101060.03;;;9.38;62.44
32735;BME280;19112;51.076;3.706;2023-03-16T05:22:24;101232.94;;;10.41;61.54
32735;BME280;19112;51.076;3.706;2023-03-16T05:25:08;101209.44;;;10.23;62.12
32735;BME280;19112;51.076;3.706;2023-03-16T05:27:50;101193.09;;;10.08;61.24
32735;BME280;19112;51.076;3.706;2023-03-16T05:30:38;101069.97;;;9.47;61.90
32735;BME280;19112;51.076;3.706;2023-03-16T05:33:09;101232.81;;;10.38;61.11
32735;BME280;19112;51.076;3.706;2023-03-16T05:35:50;101172.63;;;9.99;61.34
32735;BME280;19112;51.076;3.706;2023-03-16T05:38:17;101061.81;;;9.18;61.93
32735;BME280;19112;51.076;3.706;2023-03-16T05:40:44;101203.19;;;9.98;61.81
32735;BME280;19112;51.076;3.706;2023-03-16T05:43:10;100912.25;;;8.48;61.50
32735;BME280;19112;51.076;3.706;2023-03-16T05:45:37;101228.84;;;10.27;61.37
32735;BME280;19112;51.076;3.706;2023-03-16T05:48:03;101154.66;;;9.87;61.57
32735;BME280;19112;51.076;3.706;2023-03-16T05:50:41;100961.34;;;8.74;60.48
32735;BME280;19112;51.076;3.706;2023-03-16T05:53:08;101170.84;;;9.98;60.97
32735;BME280;19112;51.076;3.706;2023-03-16T05:55:34;100964.22;;;8.80;61.01
32735;BME280;19112;51.076;3.706;2023-03-16T05:58:09;101202.28;;;10.19;60.75
32735;BME280;19112;51.076;3.706;2023-03-16T06:00:36;100779.25;;;7.76;60.21
32735;BME280;19112;51.076;3.706;2023-03-16T06:03:04;101159.44;;;9.97;60.05
32735;BME280;19112;51.076;3.706;2023-03-16T06:05:30;101153.63;;;9.84;61.09
32735;BME280;19112;51.076;3.706;2023-03-16T06:07:56;100826.97;;;7.92;60.66
32735;BME280;19112;51.076;3.706;2023-03-16T06:10:23;101217.31;;;10.23;60.82
32735;BME280;19112;51.076;3.706;2023-03-16T06:12:51;100966.38;;;8.70;61.06
32735;BME280;19112;51.076;3.706;2023-03-16T06:15:29;100971.59;;;8.70;60.73
32735;BME280;19112;51.076;3.706;2023-03-16T06:17:55;101237.81;;;10.32;59.74
32735;BME280;19112;51.076;3.706;2023-03-16T06:20:22;101081.03;;;9.39;60.43
32735;BME280;19112;51.076;3.706;2023-03-16T06:22:48;101063.53;;;9.38;60.03
32735;BME280;19112;51.076;3.706;2023-03-16T06:25:14;101100.03;;;9.55;60.49
32735;BME280;19112;51.076;3.706;2023-03-16T06:27:42;101107.00;;;9.54;60.50
32735;BME280;19112;51.076;3.706;2023-03-16T06:30:11;101135.44;;;9.66;60.34
32735;BME280;19112;51.076;3.706;2023-03-16T06:32:38;100299.09;;;4.77;59.87
32735;BME280;19112;51.076;3.706;2023-03-16T06:35:08;101011.69;;;9.10;59.73
32735;BME280;19112;51.076;3.706;2023-03-16T06:37:36;101228.19;;;10.32;59.67
32735;BME280;19112;51.076;3.706;2023-03-16T06:40:02;101046.97;;;9.39;60.51
32735;BME280;19112;51.076;3.706;2023-03-16T06:42:29;100911.97;;;8.62;60.41
32735;BME280;19112;51.076;3.706;2023-03-16T06:44:58;101229.66;;;10.46;58.98
32735;BME280;19112;51.076;3.706;2023-03-16T06:47:25;100941.78;;;8.87;58.51
32735;BME280;19112;51.076;3.706;2023-03-16T06:49:52;101232.72;;;10.57;58.32
32735;BME280;19112;51.076;3.706;2023-03-16T06:52:20;101234.81;;;10.66;58.43
32735;BME280;19112;51.076;3.706;2023-03-16T06:54:53;100373.44;;;5.85;58.76
32735;BME280;19112;51.076;3.706;2023-03-16T06:57:23;101093.97;;;10.01;59.00
32735;BME280;19112;51.076;3.706;2023-03-16T06:59:49;101243.16;;;10.78;58.19
32735;BME280;19112;51.076;3.706;2023-03-16T07:02:16;100894.22;;;8.97;57.03
32735;BME280;19112;51.076;3.706;2023-03-16T07:04:45;101154.06;;;10.60;57.02
32735;BME280;19112;51.076;3.706;2023-03-16T07:07:11;100986.38;;;9.75;57.48
32735;BME280;19112;51.076;3.706;2023-03-16T07:09:37;101179.31;;;11.03;56.35
32735;BME280;19112;51.076;3.706;2023-03-16T07:12:05;101014.38;;;10.22;55.47
32735;BME280;19112;51.076;3.706;2023-03-16T07:14:33;101244.81;;;11.46;55.73
32735;BME280;19112;51.076;3.706;2023-03-16T07:17:01;101220.13;;;11.67;54.77
32735;BME280;19112;51.076;3.706;2023-03-16T07:19:27;101005.03;;;10.53;55.83
32735;BME280;19112;51.076;3.706;2023-03-16T07:21:53;101031.84;;;10.68;53.94
32735;BME280;19112;51.076;3.706;2023-03-16T07:24:20;101098.44;;;11.20;54.47
32735;BME280;19112;51.076;3.706;2023-03-16T07:26:47;100962.63;;;10.41;53.92
32735;BME280;19112;51.076;3.706;2023-03-16T07:29:12;101085.56;;;11.27;52.93
32735;BME280;19112;51.076;3.706;2023-03-16T07:31:39;101227.81;;;12.12;53.37
32735;BME280;19112;51.076;3.706;2023-03-16T07:34:05;101144.09;;;11.74;52.97
32735;BME280;19112;51.076;3.706;2023-03-16T07:36:31;101143.78;;;11.65;53.31
32735;BME280;19112;51.076;3.706;2023-03-16T07:38:57;100934.31;;;10.58;52.27
32735;BME280;19112;51.076;3.706;2023-03-16T07:41:23;101253.81;;;12.29;53.04
32735;BME280;19112;51.076;3.706;2023-03-16T07:43:50;101192.66;;;12.10;51.15
32735;BME280;19112;51.076;3.706;2023-03-16T07:46:16;101208.00;;;12.23;52.12
32735;BME280;19112;51.076;3.706;2023-03-16T07:48:43;101010.38;;;11.06;51.84
32735;BME280;19112;51.076;3.706;2023-03-16T07:51:11;101140.94;;;11.83;52.08
32735;BME280;19112;51.076;3.706;2023-03-16T07:53:38;101223.91;;;12.26;51.49
32735;BME280;19112;51.076;3.706;2023-03-16T07:56:04;100739.75;;;9.45;51.61
32735;BME280;19112;51.076;3.706;2023-03-16T07:58:31;100942.31;;;10.61;51.27
32735;BME280;19112;51.076;3.706;2023-03-16T08:01:00;101220.44;;;12.28;51.46
32735;BME280;19112;51.076;3.706;2023-03-16T08:03:27;101220.44;;;12.28;51.03
32735;BME280;19112;51.076;3.706;2023-03-16T08:05:54;100549.09;;;8.61;50.73
32735;BME280;19112;51.076;3.706;2023-03-16T08:08:21;101104.34;;;11.91;50.59
32735;BME280;19112;51.076;3.706;2023-03-16T08:10:49;101222.22;;;12.56;51.07
32735;BME280;19112;51.076;3.706;2023-03-16T08:13:17;101105.09;;;12.15;50.29
32735;BME280;19112;51.076;3.706;2023-03-16T08:15:50;101112.84;;;12.39;49.23
32735;BME280;19112;51.076;3.706;2023-03-16T08:18:27;101070.94;;;12.17;48.34
32735;BME280;19112;51.076;3.706;2023-03-16T08:20:55;101173.63;;;12.75;48.81
32735;BME280;19112;51.076;3.706;2023-03-16T08:23:23;101079.28;;;12.32;49.49
32735;BME280;19112;51.076;3.706;2023-03-16T08:25:54;100885.59;;;11.20;48.19
32735;BME280;19112;51.076;3.706;2023-03-16T08:28:20;101170.03;;;13.03;48.90
32735;BME280;19112;51.076;3.706;2023-03-16T08:30:52;100913.63;;;11.78;47.66
32735;BME280;19112;51.076;3.706;2023-03-16T08:33:19;101183.09;;;13.29;47.70
32735;BME280;19112;51.076;3.706;2023-03-16T08:35:47;101091.97;;;12.75;46.78
32735;BME280;19112;51.076;3.706;2023-03-16T08:38:14;101185.81;;;13.32;46.66
32735;BME280;19112;51.076;3.706;2023-03-16T08:40:40;101122.44;;;12.97;47.41
32735;BME280;19112;51.076;3.706;2023-03-16T08:43:07;101169.19;;;13.34;46.55
32735;BME280;19112;51.076;3.706;2023-03-16T08:45:33;101139.53;;;13.11;45.89
32735;BME280;19112;51.076;3.706;2023-03-16T08:47:59;101131.78;;;13.18;46.21
32735;BME280;19112;51.076;3.706;2023-03-16T08:50:25;101211.31;;;13.65;46.59
32735;BME280;19112;51.076;3.706;2023-03-16T08:52:53;101037.53;;;12.76;46.04
32735;BME280;19112;51.076;3.706;2023-03-16T08:55:18;101143.94;;;13.44;46.07
32735;BME280;19112;51.076;3.706;2023-03-16T08:57:44;100922.81;;;12.22;46.66
32735;BME280;19112;51.076;3.706;2023-03-16T09:00:12;101084.78;;;13.01;45.49
32735;BME280;19112;51.076;3.706;2023-03-16T09:02:40;101210.38;;;13.96;46.35
32735;BME280;19112;51.076;3.706;2023-03-16T09:05:12;100964.31;;;12.64;45.98
32735;BME280;19112;51.076;3.706;2023-03-16T09:07:39;101226.00;;;14.23;45.26
32735;BME280;19112;51.076;3.706;2023-03-16T09:10:06;101050.59;;;13.38;45.09
32735;BME280;19112;51.076;3.706;2023-03-16T09:12:37;101000.63;;;13.09;45.51
32735;BME280;19112;51.076;3.706;2023-03-16T09:15:04;101103.19;;;13.68;44.11
32735;BME280;19112;51.076;3.706;2023-03-16T09:17:30;101133.09;;;14.03;44.59
32735;BME280;19112;51.076;3.706;2023-03-16T09:19:56;100936.19;;;12.98;45.09
32735;BME280;19112;51.076;3.706;2023-03-16T09:22:22;101138.34;;;14.01;43.24
32735;BME280;19112;51.076;3.706;2023-03-16T09:24:49;101227.78;;;14.60;44.16
32735;BME280;19112;51.076;3.706;2023-03-16T09:27:16;101159.50;;;14.42;44.13
32735;BME280;19112;51.076;3.706;2023-03-16T09:29:43;101021.94;;;13.53;44.39
32735;BME280;19112;51.076;3.706;2023-03-16T09:32:10;101110.59;;;14.20;44.32
32735;BME280;19112;51.076;3.706;2023-03-16T09:34:36;100910.34;;;13.18;44.80
32735;BME280;19112;51.076;3.706;2023-03-16T09:37:02;101124.81;;;14.64;44.04
32735;BME280;19112;51.076;3.706;2023-03-16T09:39:28;100977.78;;;13.83;43.41
32735;BME280;19112;51.076;3.706;2023-03-16T09:42:37;101197.75;;;15.41;43.59
32735;BME280;19112;51.076;3.706;2023-03-16T09:45:31;100960.16;;;14.23;43.14
32735;BME280;19112;51.076;3.706;2023-03-16T09:48:03;101133.88;;;15.23;43.37
32735;BME280;19112;51.076;3.706;2023-03-16T09:50:37;101153.97;;;15.11;43.34
32735;BME280;19112;51.076;3.706;2023-03-16T09:53:26;101192.66;;;15.52;42.79
32735;BME280;19112;51.076;3.706;2023-03-16T09:56:01;101187.13;;;15.86;42.19
32735;BME280;19112;51.076;3.706;2023-03-16T09:58:28;101118.59;;;15.55;42.68
32735;BME280;19112;51.076;3.706;2023-03-16T10:01:32;101184.25;;;16.26;41.75
32735;BME280;19112;51.076;3.706;2023-03-16T10:04:15;100870.69;;;14.40;42.00
32735;BME280;19112;51.076;3.706;2023-03-16T10:09:53;100925.72;;;14.62;40.79
32735;BME280;19112;51.076;3.706;2023-03-16T10:12:27;101178.47;;;15.96;40.65
32735;BME280;19112;51.076;3.706;2023-03-16T10:15:12;101093.09;;;15.60;41.23
32735;BME280;19112;51.076;3.706;2023-03-16T10:18:11;101149.75;;;16.24;40.42
32735;BME280;19112;51.076;3.706;2023-03-16T10:20:40;101151.72;;;16.36;39.94
32735;BME280;19112;51.076;3.706;2023-03-16T10:23:33;101073.47;;;15.98;40.50
32735;BME280;19112;51.076;3.706;2023-03-16T10:26:00;101010.44;;;15.76;39.75
32735;BME280;19112;51.076;3.706;2023-03-16T10:28:30;100754.41;;;14.37;40.10
32735;BME280;19112;51.076;3.706;2023-03-16T10:30:59;101001.91;;;15.94;39.26
32735;BME280;19112;51.076;3.706;2023-03-16T10:33:31;101033.00;;;16.09;39.03
32735;BME280;19112;51.076;3.706;2023-03-16T10:36:29;101139.28;;;16.97;39.69
32735;BME280;19112;51.076;3.706;2023-03-16T10:39:08;101125.00;;;16.84;39.22
32735;BME280;19112;51.076;3.706;2023-03-16T10:41:44;100624.66;;;14.14;38.87
32735;BME280;19112;51.076;3.706;2023-03-16T10:44:23;100945.19;;;15.77;38.60
32735;BME280;19112;51.076;3.706;2023-03-16T10:47:03;100922.59;;;15.42;39.32
32735;BME280;19112;51.076;3.706;2023-03-16T10:49:44;101130.19;;;16.76;38.62
32735;BME280;19112;51.076;3.706;2023-03-16T10:55:18;101119.97;;;17.10;39.87
32735;BME280;19112;51.076;3.706;2023-03-16T10:57:54;101068.56;;;16.99;39.37
32735;BME280;19112;51.076;3.706;2023-03-16T11:00:26;100889.53;;;15.72;38.79
32735;BME280;19112;51.076;3.706;2023-03-16T11:02:55;101047.56;;;16.43;38.82
32735;BME280;19112;51.076;3.706;2023-03-16T11:05:32;100942.50;;;15.75;39.18
32735;BME280;19112;51.076;3.706;2023-03-16T11:08:05;101121.19;;;16.67;39.21
32735;BME280;19112;51.076;3.706;2023-03-16T11:10:43;101041.91;;;16.17;39.45
32735;BME280;19112;51.076;3.706;2023-03-16T11:13:18;100977.03;;;15.83;39.92
32735;BME280;19112;51.076;3.706;2023-03-16T11:19:50;100988.72;;;15.98;39.96
32735;BME280;19112;51.076;3.706;2023-03-16T11:22:20;100886.53;;;15.49;39.96
32735;BME280;19112;51.076;3.706;2023-03-16T11:25:13;101101.88;;;16.72;39.97
32735;BME280;19112;51.076;3.706;2023-03-16T11:28:07;101105.19;;;16.59;40.29
32735;BME280;19112;51.076;3.706;2023-03-16T11:30:52;101083.72;;;16.38;39.92
32735;BME280;19112;51.076;3.706;2023-03-16T11:33:20;100917.16;;;15.33;39.95
32735;BME280;19112;51.076;3.706;2023-03-16T11:38:58;101055.16;;;16.17;40.66
32735;BME280;19112;51.076;3.706;2023-03-16T11:45:11;101037.19;;;15.94;40.71
32735;BME280;19112;51.076;3.706;2023-03-16T11:51:27;101046.72;;;15.82;40.64
32735;BME280;19112;51.076;3.706;2023-03-16T11:54:20;100919.19;;;14.92;40.90
32735;BME280;19112;51.076;3.706;2023-03-16T11:57:03;101011.75;;;15.46;41.05
32735;BME280;19112;51.076;3.706;2023-03-16T12:08:24;101029.97;;;15.83;41.26
32735;BME280;19112;51.076;3.706;2023-03-16T12:11:32;100795.28;;;14.57;41.27
32735;BME280;19112;51.076;3.706;2023-03-16T12:14:17;100988.44;;;15.77;41.32
32735;BME280;19112;51.076;3.706;2023-03-16T12:20:19;100058.53;;;10.60;40.87
32735;BME280;19112;51.076;3.706;2023-03-16T12:22:57;100926.03;;;15.37;40.72
32735;BME280;19112;51.076;3.706;2023-03-16T12:25:33;101013.22;;;15.82;40.54
32735;BME280;19112;51.076;3.706;2023-03-16T12:28:05;100922.41;;;15.29;40.63
32735;BME280;19112;51.076;3.706;2023-03-16T12:48:18;100983.78;;;16.28;40.88
32735;BME280;19112;51.076;3.706;2023-03-16T12:50:55;100996.28;;;16.39;40.76
32735;BME280;19112;51.076;3.706;2023-03-16T12:56:35;100945.72;;;16.21;39.92
32735;BME280;19112;51.076;3.706;2023-03-16T12:59:24;100703.41;;;15.02;39.91
32735;BME280;19112;51.076;3.706;2023-03-16T13:02:01;100878.69;;;16.27;39.39
32735;BME280;19112;51.076;3.706;2023-03-16T13:04:39;100766.78;;;15.65;39.29
32735;BME280;19112;51.076;3.706;2023-03-16T13:07:29;100778.59;;;15.93;38.71
32735;BME280;19112;51.076;3.706;2023-03-16T13:10:08;100797.19;;;16.01;38.90
32735;BME280;19112;51.076;3.706;2023-03-16T13:12:37;100870.78;;;16.34;38.79
32735;BME280;19112;51.076;3.706;2023-03-16T13:20:58;100744.44;;;15.40;39.14
32735;BME280;19112;51.076;3.706;2023-03-16T13:23:59;100799.84;;;16.01;38.97
32735;BME280;19112;51.076;3.706;2023-03-16T13:26:52;100940.25;;;16.86;38.18
32735;BME280;19112;51.076;3.706;2023-03-16T13:29:30;100729.59;;;15.53;38.37
32735;BME280;19112;51.076;3.706;2023-03-16T13:32:02;100898.28;;;16.45;38.90
32735;BME280;19112;51.076;3.706;2023-03-16T13:34:46;100958.72;;;16.77;38.87
32735;BME280;19112;51.076;3.706;2023-03-16T13:37:17;100768.88;;;15.97;38.77
32735;BME280;19112;51.076;3.706;2023-03-16T13:39:57;100854.34;;;16.67;38.90
32735;BME280;19112;51.076;3.706;2023-03-16T13:42:28;100898.03;;;17.11;37.70
32735;BME280;19112;51.076;3.706;2023-03-16T13:44:57;100255.19;;;13.41;37.91
32735;BME280;19112;51.076;3.706;2023-03-16T13:47:26;100784.38;;;16.48;38.09
32735;BME280;19112;51.076;3.706;2023-03-16T13:49:58;100756.13;;;16.54;37.93
32735;BME280;19112;51.076;3.706;2023-03-16T13:52:34;100847.72;;;17.26;37.77
32735;BME280;19112;51.076;3.706;2023-03-16T13:55:06;100876.06;;;17.41;36.79
32735;BME280;19112;51.076;3.706;2023-03-16T13:57:40;100637.38;;;15.94;37.05
32735;BME280;19112;51.076;3.706;2023-03-16T14:00:18;100894.66;;;17.38;37.36
32735;BME280;19112;51.076;3.706;2023-03-16T14:02:49;100901.59;;;17.20;37.50
32735;BME280;19112;51.076;3.706;2023-03-16T14:05:28;100878.53;;;17.07;36.86
32735;BME280;19112;51.076;3.706;2023-03-16T14:07:56;100736.53;;;16.30;36.61
32735;BME280;19112;51.076;3.706;2023-03-16T14:10:30;100741.88;;;16.36;36.62
32735;BME280;19112;51.076;3.706;2023-03-16T14:12:57;100884.00;;;17.35;36.34
32735;BME280;19112;51.076;3.706;2023-03-16T14:15:31;100851.22;;;17.23;36.46
32735;BME280;19112;51.076;3.706;2023-03-16T14:18:17;100888.59;;;17.62;36.89
32735;BME280;19112;51.076;3.706;2023-03-16T14:20:51;100772.44;;;17.13;36.07
32735;BME280;19112;51.076;3.706;2023-03-16T14:23:34;100891.38;;;17.82;35.41
32735;BME280;19112;51.076;3.706;2023-03-16T14:26:05;100594.22;;;16.12;35.47
32735;BME280;19112;51.076;3.706;2023-03-16T14:28:32;100805.31;;;17.40;35.74
32735;BME280;19112;51.076;3.706;2023-03-16T14:31:09;100709.56;;;16.89;35.58
32735;BME280;19112;51.076;3.706;2023-03-16T14:33:40;100855.88;;;17.64;35.54
32735;BME280;19112;51.076;3.706;2023-03-16T14:36:15;100819.53;;;17.54;35.62